sensor_id;sensor_type;location;lat;lon;timestamp;P1;durP1;ratioP1;P2;durP2;ratioP2
17173;SDS011;8702;48.130;-1.696;2023-11-18T00:00:47;4.57;;;2.03;;
17173;SDS011;8702;48.130;-1.696;2023-11-18T00:03:14;6.00;;;2.30;;
17173;SDS011;8702;48.130;-1.696;2023-11-18T00:05:41;7.13;;;2.17;;
17173;SDS011;8702;48.130;-1.696;2023-11-18T00:08:08;5.83;;;2.27;;
17173;SDS011;8702;48.130;-1.696;2023-11-18T00:10:36;5.00;;;2.20;;
17173;SDS011;8702;48.130;-1.696;2023-11-18T00:13:04;7.30;;;2.63;;
17173;SDS011;8702;48.130;-1.696;2023-11-18T00:15:31;5.43;;;2.20;;
17173;SDS011;8702;48.130;-1.696;2023-11-18T00:18:00;7.40;;;2.50;;
17173;SDS011;8702;48.130;-1.696;2023-11-18T00:20:27;4.77;;;2.13;;
17173;SDS011;8702;48.130;-1.696;2023-11-18T00:22:55;5.97;;;2.20;;
17173;SDS011;8702;48.130;-1.696;2023-11-18T00:25:23;6.23;;;2.40;;
17173;SDS011;8702;48.130;-1.696;2023-11-18T00:27:50;4.50;;;2.77;;
17173;SDS011;8702;48.130;-1.696;2023-11-18T00:30:18;4.83;;;2.33;;
17173;SDS011;8702;48.130;-1.696;2023-11-18T00:32:45;4.27;;;2.33;;
17173;SDS011;8702;48.130;-1.696;2023-11-18T00:35:13;3.43;;;2.47;;
17173;SDS011;8702;48.130;-1.696;2023-11-18T00:37:40;5.10;;;2.60;;
17173;SDS011;8702;48.130;-1.696;2023-11-18T00:40:07;5.53;;;2.77;;
17173;SDS011;8702;48.130;-1.696;2023-11-18T00:42:36;4.03;;;2.30;;
17173;SDS011;8702;48.130;-1.696;2023-11-18T00:45:04;5.27;;;2.90;;
17173;SDS011;8702;48.130;-1.696;2023-11-18T00:47:33;5.77;;;2.53;;
17173;SDS011;8702;48.130;-1.696;2023-11-18T00:50:00;3.83;;;2.20;;
17173;SDS011;8702;48.130;-1.696;2023-11-18T00:52:28;5.00;;;2.43;;
17173;SDS011;8702;48.130;-1.696;2023-11-18T00:54:55;6.50;;;2.77;;
17173;SDS011;8702;48.130;-1.696;2023-11-18T00:57:22;3.97;;;2.20;;
17173;SDS011;8702;48.130;-1.696;2023-11-18T00:59:49;6.67;;;2.67;;
17173;SDS011;8702;48.130;-1.696;2023-11-18T01:02:16;6.53;;;2.60;;
17173;SDS011;8702;48.130;-1.696;2023-11-18T01:04:45;3.67;;;2.10;;
17173;SDS011;8702;48.130;-1.696;2023-11-18T01:07:12;5.90;;;2.60;;
17173;SDS011;8702;48.130;-1.696;2023-11-18T01:09:39;3.73;;;2.40;;
17173;SDS011;8702;48.130;-1.696;2023-11-18T01:12:07;6.00;;;2.37;;
17173;SDS011;8702;48.130;-1.696;2023-11-18T01:14:35;7.03;;;2.53;;
17173;SDS011;8702;48.130;-1.696;2023-11-18T01:17:03;9.03;;;2.80;;
17173;SDS011;8702;48.130;-1.696;2023-11-18T01:19:30;4.93;;;2.10;;
17173;SDS011;8702;48.130;-1.696;2023-11-18T01:21:59;7.30;;;2.50;;
17173;SDS011;8702;48.130;-1.696;2023-11-18T01:24:30;3.50;;;2.10;;
17173;SDS011;8702;48.130;-1.696;2023-11-18T01:26:57;5.20;;;2.47;;
17173;SDS011;8702;48.130;-1.696;2023-11-18T01:29:25;3.67;;;2.40;;
17173;SDS011;8702;48.130;-1.696;2023-11-18T01:31:52;5.13;;;2.33;;
17173;SDS011;8702;48.130;-1.696;2023-11-18T01:34:21;4.83;;;2.13;;
17173;SDS011;8702;48.130;-1.696;2023-11-18T01:36:48;6.17;;;2.17;;
17173;SDS011;8702;48.130;-1.696;2023-11-18T01:39:17;5.73;;;2.30;;
17173;SDS011;8702;48.130;-1.696;2023-11-18T01:41:44;6.23;;;2.10;;
17173;SDS011;8702;48.130;-1.696;2023-11-18T01:44:11;4.67;;;2.30;;
17173;SDS011;8702;48.130;-1.696;2023-11-18T01:46:40;9.37;;;2.33;;
17173;SDS011;8702;48.130;-1.696;2023-11-18T01:49:10;5.33;;;2.33;;
17173;SDS011;8702;48.130;-1.696;2023-11-18T01:51:38;4.23;;;2.57;;
17173;SDS011;8702;48.130;-1.696;2023-11-18T01:54:06;5.27;;;2.50;;
17173;SDS011;8702;48.130;-1.696;2023-11-18T01:56:38;5.90;;;2.50;;
17173;SDS011;8702;48.130;-1.696;2023-11-18T01:59:06;6.77;;;2.70;;
17173;SDS011;8702;48.130;-1.696;2023-11-18T02:01:35;5.53;;;2.30;;
17173;SDS011;8702;48.130;-1.696;2023-11-18T02:04:04;5.97;;;2.60;;
17173;SDS011;8702;48.130;-1.696;2023-11-18T02:06:32;6.27;;;2.20;;
17173;SDS011;8702;48.130;-1.696;2023-11-18T02:09:01;7.50;;;2.90;;
17173;SDS011;8702;48.130;-1.696;2023-11-18T02:11:29;8.87;;;3.00;;
17173;SDS011;8702;48.130;-1.696;2023-11-18T02:14:00;4.23;;;2.00;;
17173;SDS011;8702;48.130;-1.696;2023-11-18T02:16:29;3.50;;;2.23;;
17173;SDS011;8702;48.130;-1.696;2023-11-18T02:18:56;7.00;;;2.63;;
17173;SDS011;8702;48.130;-1.696;2023-11-18T02:21:23;6.87;;;2.23;;
17173;SDS011;8702;48.130;-1.696;2023-11-18T02:23:51;6.97;;;2.13;;
17173;SDS011;8702;48.130;-1.696;2023-11-18T02:26:23;5.17;;;2.10;;
17173;SDS011;8702;48.130;-1.696;2023-11-18T02:28:50;4.97;;;2.10;;
17173;SDS011;8702;48.130;-1.696;2023-11-18T02:31:20;6.60;;;2.17;;
17173;SDS011;8702;48.130;-1.696;2023-11-18T02:33:50;3.43;;;1.90;;
17173;SDS011;8702;48.130;-1.696;2023-11-18T02:36:20;3.73;;;1.80;;
17173;SDS011;8702;48.130;-1.696;2023-11-18T02:38:50;7.67;;;2.07;;
17173;SDS011;8702;48.130;-1.696;2023-11-18T02:41:20;4.70;;;1.93;;
17173;SDS011;8702;48.130;-1.696;2023-11-18T02:43:49;2.33;;;1.50;;
17173;SDS011;8702;48.130;-1.696;2023-11-18T02:46:17;3.90;;;1.70;;
17173;SDS011;8702;48.130;-1.696;2023-11-18T02:48:45;5.67;;;2.03;;
17173;SDS011;8702;48.130;-1.696;2023-11-18T02:51:12;4.67;;;1.87;;
17173;SDS011;8702;48.130;-1.696;2023-11-18T02:53:41;2.93;;;1.47;;
17173;SDS011;8702;48.130;-1.696;2023-11-18T02:56:10;5.80;;;1.80;;
17173;SDS011;8702;48.130;-1.696;2023-11-18T02:58:37;6.83;;;1.87;;
17173;SDS011;8702;48.130;-1.696;2023-11-18T03:01:06;5.80;;;1.80;;
17173;SDS011;8702;48.130;-1.696;2023-11-18T03:03:33;4.87;;;1.80;;
17173;SDS011;8702;48.130;-1.696;2023-11-18T03:06:00;5.77;;;1.80;;
17173;SDS011;8702;48.130;-1.696;2023-11-18T03:08:27;5.37;;;1.87;;
17173;SDS011;8702;48.130;-1.696;2023-11-18T03:10:55;5.03;;;1.70;;
17173;SDS011;8702;48.130;-1.696;2023-11-18T03:13:23;6.47;;;1.73;;
17173;SDS011;8702;48.130;-1.696;2023-11-18T03:15:51;5.53;;;1.67;;
17173;SDS011;8702;48.130;-1.696;2023-11-18T03:18:19;8.13;;;1.90;;
17173;SDS011;8702;48.130;-1.696;2023-11-18T03:20:46;3.17;;;1.40;;
17173;SDS011;8702;48.130;-1.696;2023-11-18T03:23:14;5.37;;;1.90;;
17173;SDS011;8702;48.130;-1.696;2023-11-18T03:25:41;3.97;;;1.70;;
17173;SDS011;8702;48.130;-1.696;2023-11-18T03:28:09;7.53;;;1.80;;
17173;SDS011;8702;48.130;-1.696;2023-11-18T03:30:36;7.27;;;1.93;;
17173;SDS011;8702;48.130;-1.696;2023-11-18T03:33:03;6.73;;;1.90;;
17173;SDS011;8702;48.130;-1.696;2023-11-18T03:35:32;4.43;;;1.77;;
17173;SDS011;8702;48.130;-1.696;2023-11-18T03:37:59;2.87;;;1.73;;
17173;SDS011;8702;48.130;-1.696;2023-11-18T03:40:26;3.63;;;1.60;;
17173;SDS011;8702;48.130;-1.696;2023-11-18T03:42:54;5.57;;;1.50;;
17173;SDS011;8702;48.130;-1.696;2023-11-18T03:45:21;5.13;;;1.43;;
17173;SDS011;8702;48.130;-1.696;2023-11-18T03:47:49;5.83;;;1.70;;
17173;SDS011;8702;48.130;-1.696;2023-11-18T03:50:16;6.00;;;2.00;;
17173;SDS011;8702;48.130;-1.696;2023-11-18T03:52:45;8.87;;;2.13;;
17173;SDS011;8702;48.130;-1.696;2023-11-18T03:55:12;4.70;;;1.43;;
17173;SDS011;8702;48.130;-1.696;2023-11-18T03:57:39;6.53;;;1.83;;
17173;SDS011;8702;48.130;-1.696;2023-11-18T04:00:06;8.43;;;2.00;;
17173;SDS011;8702;48.130;-1.696;2023-11-18T04:02:36;6.63;;;1.80;;
17173;SDS011;8702;48.130;-1.696;2023-11-18T04:05:05;5.43;;;1.57;;
17173;SDS011;8702;48.130;-1.696;2023-11-18T04:07:33;6.67;;;1.77;;
17173;SDS011;8702;48.130;-1.696;2023-11-18T04:10:01;9.60;;;2.07;;
17173;SDS011;8702;48.130;-1.696;2023-11-18T04:12:31;7.70;;;2.17;;
17173;SDS011;8702;48.130;-1.696;2023-11-18T04:14:58;7.90;;;1.90;;
17173;SDS011;8702;48.130;-1.696;2023-11-18T04:17:25;5.37;;;1.47;;
17173;SDS011;8702;48.130;-1.696;2023-11-18T04:19:53;7.10;;;2.10;;
17173;SDS011;8702;48.130;-1.696;2023-11-18T04:22:20;8.63;;;1.83;;
17173;SDS011;8702;48.130;-1.696;2023-11-18T04:24:48;8.57;;;1.90;;
17173;SDS011;8702;48.130;-1.696;2023-11-18T04:27:16;5.63;;;2.23;;
17173;SDS011;8702;48.130;-1.696;2023-11-18T04:29:43;9.07;;;2.47;;
17173;SDS011;8702;48.130;-1.696;2023-11-18T04:32:10;7.33;;;2.20;;
17173;SDS011;8702;48.130;-1.696;2023-11-18T04:34:39;9.03;;;2.30;;
17173;SDS011;8702;48.130;-1.696;2023-11-18T04:37:07;7.77;;;2.33;;
17173;SDS011;8702;48.130;-1.696;2023-11-18T04:39:34;6.73;;;2.17;;
17173;SDS011;8702;48.130;-1.696;2023-11-18T04:42:02;7.13;;;2.07;;
17173;SDS011;8702;48.130;-1.696;2023-11-18T04:44:31;7.33;;;2.53;;
17173;SDS011;8702;48.130;-1.696;2023-11-18T04:46:58;12.50;;;2.40;;
17173;SDS011;8702;48.130;-1.696;2023-11-18T04:49:26;6.47;;;2.30;;
17173;SDS011;8702;48.130;-1.696;2023-11-18T04:51:53;11.13;;;2.73;;
17173;SDS011;8702;48.130;-1.696;2023-11-18T04:54:20;7.70;;;2.63;;
17173;SDS011;8702;48.130;-1.696;2023-11-18T04:56:47;8.43;;;2.43;;
17173;SDS011;8702;48.130;-1.696;2023-11-18T04:59:15;6.83;;;2.27;;
17173;SDS011;8702;48.130;-1.696;2023-11-18T05:01:45;9.50;;;2.30;;
17173;SDS011;8702;48.130;-1.696;2023-11-18T05:04:12;11.40;;;2.20;;
17173;SDS011;8702;48.130;-1.696;2023-11-18T05:06:39;6.73;;;2.30;;
17173;SDS011;8702;48.130;-1.696;2023-11-18T05:09:06;7.00;;;2.30;;
17173;SDS011;8702;48.130;-1.696;2023-11-18T05:11:33;8.50;;;2.20;;
17173;SDS011;8702;48.130;-1.696;2023-11-18T05:14:01;8.57;;;2.40;;
17173;SDS011;8702;48.130;-1.696;2023-11-18T05:16:29;9.83;;;2.23;;
17173;SDS011;8702;48.130;-1.696;2023-11-18T05:18:57;7.37;;;2.20;;
17173;SDS011;8702;48.130;-1.696;2023-11-18T05:21:24;9.87;;;2.60;;
17173;SDS011;8702;48.130;-1.696;2023-11-18T05:23:51;9.87;;;2.17;;
17173;SDS011;8702;48.130;-1.696;2023-11-18T05:26:18;9.83;;;2.37;;
17173;SDS011;8702;48.130;-1.696;2023-11-18T05:28:46;6.47;;;2.13;;
17173;SDS011;8702;48.130;-1.696;2023-11-18T05:31:14;14.57;;;2.57;;
17173;SDS011;8702;48.130;-1.696;2023-11-18T05:33:41;10.63;;;2.23;;
17173;SDS011;8702;48.130;-1.696;2023-11-18T05:36:10;11.27;;;2.60;;
17173;SDS011;8702;48.130;-1.696;2023-11-18T05:38:37;12.80;;;2.77;;
17173;SDS011;8702;48.130;-1.696;2023-11-18T05:41:04;9.57;;;2.33;;
17173;SDS011;8702;48.130;-1.696;2023-11-18T05:43:41;11.63;;;2.20;;
17173;SDS011;8702;48.130;-1.696;2023-11-18T05:46:16;9.97;;;2.17;;
17173;SDS011;8702;48.130;-1.696;2023-11-18T05:48:45;13.10;;;2.67;;
17173;SDS011;8702;48.130;-1.696;2023-11-18T05:51:18;9.47;;;2.20;;
17173;SDS011;8702;48.130;-1.696;2023-11-18T05:53:45;10.77;;;2.47;;
17173;SDS011;8702;48.130;-1.696;2023-11-18T05:56:12;15.67;;;2.90;;
17173;SDS011;8702;48.130;-1.696;2023-11-18T05:58:39;10.53;;;2.60;;
17173;SDS011;8702;48.130;-1.696;2023-11-18T06:01:08;12.17;;;2.63;;
17173;SDS011;8702;48.130;-1.696;2023-11-18T06:03:36;14.37;;;2.67;;
17173;SDS011;8702;48.130;-1.696;2023-11-18T06:06:04;10.43;;;2.40;;
17173;SDS011;8702;48.130;-1.696;2023-11-18T06:08:33;12.07;;;2.63;;
17173;SDS011;8702;48.130;-1.696;2023-11-18T06:11:00;9.00;;;2.13;;
17173;SDS011;8702;48.130;-1.696;2023-11-18T06:13:37;11.67;;;2.73;;
17173;SDS011;8702;48.130;-1.696;2023-11-18T06:16:07;13.07;;;2.60;;
17173;SDS011;8702;48.130;-1.696;2023-11-18T06:18:34;12.80;;;2.17;;
17173;SDS011;8702;48.130;-1.696;2023-11-18T06:21:03;10.00;;;2.03;;
17173;SDS011;8702;48.130;-1.696;2023-11-18T06:23:30;11.87;;;2.50;;
17173;SDS011;8702;48.130;-1.696;2023-11-18T06:25:59;7.47;;;2.00;;
17173;SDS011;8702;48.130;-1.696;2023-11-18T06:28:27;6.53;;;1.77;;
17173;SDS011;8702;48.130;-1.696;2023-11-18T06:30:54;10.43;;;2.37;;
17173;SDS011;8702;48.130;-1.696;2023-11-18T06:33:21;8.83;;;2.23;;
17173;SDS011;8702;48.130;-1.696;2023-11-18T06:35:51;7.17;;;2.20;;
17173;SDS011;8702;48.130;-1.696;2023-11-18T06:38:19;6.57;;;2.07;;
17173;SDS011;8702;48.130;-1.696;2023-11-18T06:40:46;10.33;;;2.10;;
17173;SDS011;8702;48.130;-1.696;2023-11-18T06:43:18;6.67;;;2.10;;
17173;SDS011;8702;48.130;-1.696;2023-11-18T06:45:45;6.43;;;2.00;;
17173;SDS011;8702;48.130;-1.696;2023-11-18T06:48:13;7.00;;;2.00;;
17173;SDS011;8702;48.130;-1.696;2023-11-18T06:50:45;11.10;;;2.10;;
17173;SDS011;8702;48.130;-1.696;2023-11-18T06:53:12;6.80;;;2.07;;
17173;SDS011;8702;48.130;-1.696;2023-11-18T06:55:40;8.07;;;2.17;;
17173;SDS011;8702;48.130;-1.696;2023-11-18T06:58:07;8.70;;;2.20;;
17173;SDS011;8702;48.130;-1.696;2023-11-18T07:00:37;5.60;;;1.90;;
17173;SDS011;8702;48.130;-1.696;2023-11-18T07:03:04;6.97;;;1.83;;
17173;SDS011;8702;48.130;-1.696;2023-11-18T07:05:31;6.37;;;1.73;;
17173;SDS011;8702;48.130;-1.696;2023-11-18T07:07:59;8.80;;;2.23;;
17173;SDS011;8702;48.130;-1.696;2023-11-18T07:10:26;6.00;;;1.90;;
17173;SDS011;8702;48.130;-1.696;2023-11-18T07:12:53;8.97;;;1.93;;
17173;SDS011;8702;48.130;-1.696;2023-11-18T07:15:21;10.37;;;2.07;;
17173;SDS011;8702;48.130;-1.696;2023-11-18T07:17:49;7.00;;;2.00;;
17173;SDS011;8702;48.130;-1.696;2023-11-18T07:20:16;8.67;;;1.83;;
17173;SDS011;8702;48.130;-1.696;2023-11-18T07:22:43;6.07;;;1.70;;
17173;SDS011;8702;48.130;-1.696;2023-11-18T07:25:11;9.97;;;2.00;;
17173;SDS011;8702;48.130;-1.696;2023-11-18T07:27:38;8.27;;;1.80;;
17173;SDS011;8702;48.130;-1.696;2023-11-18T07:30:05;8.37;;;1.93;;
17173;SDS011;8702;48.130;-1.696;2023-11-18T07:32:35;8.67;;;2.17;;
17173;SDS011;8702;48.130;-1.696;2023-11-18T07:35:05;6.33;;;1.80;;
17173;SDS011;8702;48.130;-1.696;2023-11-18T07:37:34;4.97;;;1.77;;
17173;SDS011;8702;48.130;-1.696;2023-11-18T07:40:02;7.93;;;1.97;;
17173;SDS011;8702;48.130;-1.696;2023-11-18T07:42:30;6.03;;;1.70;;
17173;SDS011;8702;48.130;-1.696;2023-11-18T07:44:59;7.27;;;2.33;;
17173;SDS011;8702;48.130;-1.696;2023-11-18T07:47:29;9.30;;;1.87;;
17173;SDS011;8702;48.130;-1.696;2023-11-18T07:49:57;6.60;;;2.10;;
17173;SDS011;8702;48.130;-1.696;2023-11-18T07:52:26;4.03;;;1.50;;
17173;SDS011;8702;48.130;-1.696;2023-11-18T07:54:54;5.97;;;1.90;;
17173;SDS011;8702;48.130;-1.696;2023-11-18T07:57:21;5.60;;;1.60;;
17173;SDS011;8702;48.130;-1.696;2023-11-18T07:59:49;4.30;;;1.60;;
17173;SDS011;8702;48.130;-1.696;2023-11-18T08:02:20;3.87;;;1.53;;
17173;SDS011;8702;48.130;-1.696;2023-11-18T08:04:48;3.13;;;1.73;;
17173;SDS011;8702;48.130;-1.696;2023-11-18T08:07:15;2.87;;;1.30;;
17173;SDS011;8702;48.130;-1.696;2023-11-18T08:09:43;4.37;;;1.63;;
17173;SDS011;8702;48.130;-1.696;2023-11-18T08:12:10;5.87;;;1.43;;
17173;SDS011;8702;48.130;-1.696;2023-11-18T08:14:38;4.30;;;1.27;;
17173;SDS011;8702;48.130;-1.696;2023-11-18T08:17:05;3.27;;;1.33;;
17173;SDS011;8702;48.130;-1.696;2023-11-18T08:19:32;4.37;;;1.40;;
17173;SDS011;8702;48.130;-1.696;2023-11-18T08:22:00;2.40;;;1.37;;
17173;SDS011;8702;48.130;-1.696;2023-11-18T08:24:28;3.30;;;1.60;;
17173;SDS011;8702;48.130;-1.696;2023-11-18T08:26:59;3.90;;;1.57;;
17173;SDS011;8702;48.130;-1.696;2023-11-18T08:29:28;3.43;;;1.43;;
17173;SDS011;8702;48.130;-1.696;2023-11-18T08:31:57;4.57;;;1.40;;
17173;SDS011;8702;48.130;-1.696;2023-11-18T08:34:24;8.80;;;2.23;;
17173;SDS011;8702;48.130;-1.696;2023-11-18T08:36:51;4.97;;;1.53;;
17173;SDS011;8702;48.130;-1.696;2023-11-18T08:39:19;4.70;;;1.63;;
17173;SDS011;8702;48.130;-1.696;2023-11-18T08:41:50;5.00;;;2.07;;
17173;SDS011;8702;48.130;-1.696;2023-11-18T08:44:19;5.17;;;1.80;;
17173;SDS011;8702;48.130;-1.696;2023-11-18T08:46:46;5.97;;;2.17;;
17173;SDS011;8702;48.130;-1.696;2023-11-18T08:49:13;6.53;;;2.60;;
17173;SDS011;8702;48.130;-1.696;2023-11-18T08:51:46;8.43;;;2.40;;
17173;SDS011;8702;48.130;-1.696;2023-11-18T08:54:14;5.80;;;2.37;;
17173;SDS011;8702;48.130;-1.696;2023-11-18T08:56:50;5.80;;;2.50;;
17173;SDS011;8702;48.130;-1.696;2023-11-18T08:59:19;8.70;;;2.90;;
17173;SDS011;8702;48.130;-1.696;2023-11-18T09:01:50;10.20;;;3.10;;
17173;SDS011;8702;48.130;-1.696;2023-11-18T09:04:20;10.60;;;3.33;;
17173;SDS011;8702;48.130;-1.696;2023-11-18T09:06:48;10.17;;;3.37;;
17173;SDS011;8702;48.130;-1.696;2023-11-18T09:09:16;9.93;;;3.43;;
17173;SDS011;8702;48.130;-1.696;2023-11-18T09:11:51;12.50;;;3.93;;
17173;SDS011;8702;48.130;-1.696;2023-11-18T09:14:19;13.97;;;3.60;;
17173;SDS011;8702;48.130;-1.696;2023-11-18T09:16:47;15.17;;;4.50;;
17173;SDS011;8702;48.130;-1.696;2023-11-18T09:19:14;16.53;;;4.53;;
17173;SDS011;8702;48.130;-1.696;2023-11-18T09:21:42;12.77;;;4.70;;
17173;SDS011;8702;48.130;-1.696;2023-11-18T09:24:09;20.37;;;4.83;;
17173;SDS011;8702;48.130;-1.696;2023-11-18T09:26:38;13.33;;;4.60;;
17173;SDS011;8702;48.130;-1.696;2023-11-18T09:29:05;15.53;;;4.47;;
17173;SDS011;8702;48.130;-1.696;2023-11-18T09:31:35;18.97;;;5.03;;
17173;SDS011;8702;48.130;-1.696;2023-11-18T09:34:02;15.13;;;4.80;;
17173;SDS011;8702;48.130;-1.696;2023-11-18T09:36:31;17.20;;;4.73;;
17173;SDS011;8702;48.130;-1.696;2023-11-18T09:38:59;18.93;;;5.40;;
17173;SDS011;8702;48.130;-1.696;2023-11-18T09:41:28;18.83;;;5.53;;
17173;SDS011;8702;48.130;-1.696;2023-11-18T09:43:56;16.67;;;5.30;;
17173;SDS011;8702;48.130;-1.696;2023-11-18T09:46:27;20.87;;;4.97;;
17173;SDS011;8702;48.130;-1.696;2023-11-18T09:49:02;13.57;;;4.97;;
17173;SDS011;8702;48.130;-1.696;2023-11-18T09:51:40;17.93;;;5.23;;
17173;SDS011;8702;48.130;-1.696;2023-11-18T09:54:24;19.87;;;5.20;;
17173;SDS011;8702;48.130;-1.696;2023-11-18T09:57:00;17.57;;;4.60;;
17173;SDS011;8702;48.130;-1.696;2023-11-18T09:59:37;17.00;;;4.60;;
17173;SDS011;8702;48.130;-1.696;2023-11-18T10:02:08;17.70;;;5.00;;
17173;SDS011;8702;48.130;-1.696;2023-11-18T10:04:37;21.43;;;4.53;;
17173;SDS011;8702;48.130;-1.696;2023-11-18T10:07:05;18.57;;;5.13;;
17173;SDS011;8702;48.130;-1.696;2023-11-18T10:09:35;18.27;;;4.87;;
17173;SDS011;8702;48.130;-1.696;2023-11-18T10:12:04;20.27;;;4.97;;
17173;SDS011;8702;48.130;-1.696;2023-11-18T10:14:32;21.50;;;5.10;;
17173;SDS011;8702;48.130;-1.696;2023-11-18T10:17:02;16.93;;;4.07;;
17173;SDS011;8702;48.130;-1.696;2023-11-18T10:22:19;17.03;;;4.73;;
17173;SDS011;8702;48.130;-1.696;2023-11-18T10:24:48;12.40;;;4.10;;
17173;SDS011;8702;48.130;-1.696;2023-11-18T10:27:17;18.13;;;4.63;;
17173;SDS011;8702;48.130;-1.696;2023-11-18T10:29:44;19.13;;;4.20;;
17173;SDS011;8702;48.130;-1.696;2023-11-18T10:32:12;16.20;;;4.50;;
17173;SDS011;8702;48.130;-1.696;2023-11-18T10:34:45;14.13;;;4.20;;
17173;SDS011;8702;48.130;-1.696;2023-11-18T10:37:13;20.97;;;4.57;;
17173;SDS011;8702;48.130;-1.696;2023-11-18T10:39:43;20.73;;;4.70;;
17173;SDS011;8702;48.130;-1.696;2023-11-18T10:42:13;13.97;;;4.23;;
17173;SDS011;8702;48.130;-1.696;2023-11-18T10:44:53;17.17;;;4.83;;
17173;SDS011;8702;48.130;-1.696;2023-11-18T10:47:22;17.70;;;4.63;;
17173;SDS011;8702;48.130;-1.696;2023-11-18T10:49:51;21.17;;;4.70;;
17173;SDS011;8702;48.130;-1.696;2023-11-18T10:52:18;18.30;;;4.73;;
17173;SDS011;8702;48.130;-1.696;2023-11-18T10:54:53;16.30;;;4.37;;
17173;SDS011;8702;48.130;-1.696;2023-11-18T10:57:21;15.87;;;4.70;;
17173;SDS011;8702;48.130;-1.696;2023-11-18T11:00:01;14.90;;;4.87;;
17173;SDS011;8702;48.130;-1.696;2023-11-18T11:02:32;29.03;;;5.77;;
17173;SDS011;8702;48.130;-1.696;2023-11-18T11:05:04;22.57;;;5.23;;
17173;SDS011;8702;48.130;-1.696;2023-11-18T11:07:32;23.40;;;5.37;;
17173;SDS011;8702;48.130;-1.696;2023-11-18T11:10:00;18.77;;;4.67;;
17173;SDS011;8702;48.130;-1.696;2023-11-18T11:12:31;20.27;;;5.60;;
17173;SDS011;8702;48.130;-1.696;2023-11-18T11:15:00;15.80;;;4.30;;
17173;SDS011;8702;48.130;-1.696;2023-11-18T11:17:32;18.27;;;4.23;;
17173;SDS011;8702;48.130;-1.696;2023-11-18T11:20:05;14.80;;;4.47;;
17173;SDS011;8702;48.130;-1.696;2023-11-18T11:22:44;20.70;;;5.13;;
17173;SDS011;8702;48.130;-1.696;2023-11-18T11:25:16;16.63;;;4.43;;
17173;SDS011;8702;48.130;-1.696;2023-11-18T11:27:50;18.30;;;4.57;;
17173;SDS011;8702;48.130;-1.696;2023-11-18T11:30:28;21.70;;;4.97;;
17173;SDS011;8702;48.130;-1.696;2023-11-18T11:32:59;19.27;;;4.87;;
17173;SDS011;8702;48.130;-1.696;2023-11-18T11:35:30;18.77;;;4.83;;
17173;SDS011;8702;48.130;-1.696;2023-11-18T11:37:58;14.83;;;4.60;;
17173;SDS011;8702;48.130;-1.696;2023-11-18T11:40:31;17.27;;;4.67;;
17173;SDS011;8702;48.130;-1.696;2023-11-18T11:42:59;19.30;;;4.63;;
17173;SDS011;8702;48.130;-1.696;2023-11-18T11:45:30;22.33;;;4.53;;
17173;SDS011;8702;48.130;-1.696;2023-11-18T11:47:57;20.33;;;4.50;;
17173;SDS011;8702;48.130;-1.696;2023-11-18T11:50:53;18.23;;;4.97;;
17173;SDS011;8702;48.130;-1.696;2023-11-18T11:53:22;16.23;;;4.50;;
17173;SDS011;8702;48.130;-1.696;2023-11-18T11:55:53;18.10;;;4.53;;
17173;SDS011;8702;48.130;-1.696;2023-11-18T11:58:30;18.83;;;5.23;;
17173;SDS011;8702;48.130;-1.696;2023-11-18T12:00:58;17.23;;;4.73;;
17173;SDS011;8702;48.130;-1.696;2023-11-18T12:03:27;16.67;;;4.27;;
17173;SDS011;8702;48.130;-1.696;2023-11-18T12:06:01;15.90;;;4.10;;
17173;SDS011;8702;48.130;-1.696;2023-11-18T12:08:32;17.03;;;4.73;;
17173;SDS011;8702;48.130;-1.696;2023-11-18T12:11:04;17.60;;;4.97;;
17173;SDS011;8702;48.130;-1.696;2023-11-18T12:13:34;17.20;;;4.93;;
17173;SDS011;8702;48.130;-1.696;2023-11-18T12:16:04;13.80;;;3.80;;
17173;SDS011;8702;48.130;-1.696;2023-11-18T12:18:35;15.53;;;4.53;;
17173;SDS011;8702;48.130;-1.696;2023-11-18T12:21:02;9.83;;;4.07;;
17173;SDS011;8702;48.130;-1.696;2023-11-18T12:23:30;13.17;;;3.83;;
17173;SDS011;8702;48.130;-1.696;2023-11-18T12:25:59;14.50;;;4.27;;
17173;SDS011;8702;48.130;-1.696;2023-11-18T12:28:29;16.03;;;4.17;;
17173;SDS011;8702;48.130;-1.696;2023-11-18T12:30:59;15.43;;;4.10;;
17173;SDS011;8702;48.130;-1.696;2023-11-18T12:39:21;18.67;;;3.50;;
17173;SDS011;8702;48.130;-1.696;2023-11-18T12:42:01;21.20;;;4.50;;
17173;SDS011;8702;48.130;-1.696;2023-11-18T12:44:35;20.00;;;4.13;;
17173;SDS011;8702;48.130;-1.696;2023-11-18T12:47:04;16.90;;;4.10;;
17173;SDS011;8702;48.130;-1.696;2023-11-18T12:49:40;16.53;;;4.13;;
17173;SDS011;8702;48.130;-1.696;2023-11-18T12:52:07;20.20;;;4.20;;
17173;SDS011;8702;48.130;-1.696;2023-11-18T12:54:35;14.07;;;3.70;;
17173;SDS011;8702;48.130;-1.696;2023-11-18T12:57:06;14.43;;;3.80;;
17173;SDS011;8702;48.130;-1.696;2023-11-18T12:59:35;11.27;;;3.40;;
17173;SDS011;8702;48.130;-1.696;2023-11-18T13:02:06;9.40;;;3.57;;
17173;SDS011;8702;48.130;-1.696;2023-11-18T13:04:38;14.20;;;3.63;;
17173;SDS011;8702;48.130;-1.696;2023-11-18T13:07:05;17.00;;;3.70;;
17173;SDS011;8702;48.130;-1.696;2023-11-18T13:09:36;15.53;;;4.30;;
17173;SDS011;8702;48.130;-1.696;2023-11-18T13:12:06;21.57;;;4.10;;
17173;SDS011;8702;48.130;-1.696;2023-11-18T13:14:35;13.87;;;3.57;;
17173;SDS011;8702;48.130;-1.696;2023-11-18T13:17:03;12.37;;;3.77;;
17173;SDS011;8702;48.130;-1.696;2023-11-18T13:19:31;13.63;;;3.47;;
17173;SDS011;8702;48.130;-1.696;2023-11-18T13:22:00;11.33;;;3.10;;
17173;SDS011;8702;48.130;-1.696;2023-11-18T13:24:28;13.40;;;3.80;;
17173;SDS011;8702;48.130;-1.696;2023-11-18T13:26:56;12.70;;;2.93;;
17173;SDS011;8702;48.130;-1.696;2023-11-18T13:29:24;11.30;;;3.47;;
17173;SDS011;8702;48.130;-1.696;2023-11-18T13:31:52;10.43;;;3.17;;
17173;SDS011;8702;48.130;-1.696;2023-11-18T13:34:21;15.97;;;3.80;;
17173;SDS011;8702;48.130;-1.696;2023-11-18T13:36:49;16.13;;;3.53;;
17173;SDS011;8702;48.130;-1.696;2023-11-18T13:39:17;11.00;;;3.13;;
17173;SDS011;8702;48.130;-1.696;2023-11-18T13:41:44;13.23;;;3.17;;
17173;SDS011;8702;48.130;-1.696;2023-11-18T13:44:13;9.40;;;2.90;;
17173;SDS011;8702;48.130;-1.696;2023-11-18T13:47:01;8.90;;;3.27;;
17173;SDS011;8702;48.130;-1.696;2023-11-18T13:49:30;8.97;;;2.63;;
17173;SDS011;8702;48.130;-1.696;2023-11-18T13:51:57;8.97;;;3.03;;
17173;SDS011;8702;48.130;-1.696;2023-11-18T13:54:25;9.10;;;3.10;;
17173;SDS011;8702;48.130;-1.696;2023-11-18T13:56:53;10.33;;;3.00;;
17173;SDS011;8702;48.130;-1.696;2023-11-18T13:59:23;12.83;;;3.13;;
17173;SDS011;8702;48.130;-1.696;2023-11-18T14:01:51;10.63;;;2.63;;
17173;SDS011;8702;48.130;-1.696;2023-11-18T14:04:21;7.00;;;2.77;;
17173;SDS011;8702;48.130;-1.696;2023-11-18T14:06:50;8.30;;;2.37;;
17173;SDS011;8702;48.130;-1.696;2023-11-18T14:09:18;7.03;;;2.50;;
17173;SDS011;8702;48.130;-1.696;2023-11-18T14:11:46;7.77;;;2.60;;
17173;SDS011;8702;48.130;-1.696;2023-11-18T14:14:13;7.73;;;2.33;;
17173;SDS011;8702;48.130;-1.696;2023-11-18T14:16:40;10.73;;;2.77;;
17173;SDS011;8702;48.130;-1.696;2023-11-18T14:19:07;9.90;;;2.83;;
17173;SDS011;8702;48.130;-1.696;2023-11-18T14:21:37;7.67;;;2.37;;
17173;SDS011;8702;48.130;-1.696;2023-11-18T14:24:04;7.80;;;2.70;;
17173;SDS011;8702;48.130;-1.696;2023-11-18T14:26:33;8.50;;;2.50;;
17173;SDS011;8702;48.130;-1.696;2023-11-18T14:29:00;9.53;;;2.57;;
17173;SDS011;8702;48.130;-1.696;2023-11-18T14:31:27;9.40;;;2.23;;
17173;SDS011;8702;48.130;-1.696;2023-11-18T14:33:54;10.60;;;3.17;;
17173;SDS011;8702;48.130;-1.696;2023-11-18T14:36:23;5.23;;;2.33;;
17173;SDS011;8702;48.130;-1.696;2023-11-18T14:38:52;9.73;;;2.50;;
17173;SDS011;8702;48.130;-1.696;2023-11-18T14:41:19;7.13;;;2.83;;
17173;SDS011;8702;48.130;-1.696;2023-11-18T14:43:49;10.57;;;2.83;;
17173;SDS011;8702;48.130;-1.696;2023-11-18T14:46:17;7.63;;;2.53;;
17173;SDS011;8702;48.130;-1.696;2023-11-18T14:48:44;7.23;;;2.70;;
17173;SDS011;8702;48.130;-1.696;2023-11-18T14:51:11;9.60;;;2.83;;
17173;SDS011;8702;48.130;-1.696;2023-11-18T14:53:38;8.07;;;2.33;;
17173;SDS011;8702;48.130;-1.696;2023-11-18T14:56:07;9.43;;;2.90;;
17173;SDS011;8702;48.130;-1.696;2023-11-18T14:58:35;13.47;;;3.03;;
17173;SDS011;8702;48.130;-1.696;2023-11-18T15:01:02;9.47;;;2.33;;